Tiempo atmosférico en la estación meteorológica de Teruel, Santa Eulalia del Campo, Teruel (1000 m.)



Fecha
DESCASC
Temp. máxima en grados centígrados (hora)
DESCASC
Temp. mínima en grados centígrados (hora)
DESCASC
Temp. media en grados centígrados
DESCASC
Racha de viento máxima en m/sg (hora)
DESCASC
Velocidad máxima media en intervalos de 10 minutos(hora)
DESCASC
Precipitaciones diarias en mm
DESCASC
Precipitaciones de 00:00 a 06:00 en mm
DESCASC
Precipitaciones de 06:00 a 12:00 en mm
DESCASC
Precipitaciones de 12:00 a 18:00 en mm
DESCASC
Precipitaciones de 18:00 a 24:00 en mm
DESCASC

Gráficas

Temp. máximas Temp. mínimas Temp. medias Precipitaciones Rachas de viento máximas Velocidades máximas media en intervalos de 10 minutos

Datos horarios

Fecha y hora oficial Temperatura (ºC) Velocidad del viento (km/h) Dirección del viento Racha (km/h) Dirección de racha Precipitación (mm) Presión (hPa) Tendencia (hPa) Humedad (%)
2019-06-23 23:00:00 20.4 10 Sudoeste 24 Sur 0 -- -- 45
2019-06-23 22:00:00 22.8 15 Sur 31 Sur 0 -- -- 38
2019-06-23 21:00:00 25.1 24 Sur 38 Sur 0 -- -- 35
2019-06-23 20:00:00 28.3 23 Sur 37 Sur 0 -- -- 30
2019-06-23 19:00:00 30.7 20 Sur 34 Sur 0 -- -- 25
2019-06-23 18:00:00 31.7 23 Sur 39 Sur 0 -- -- 22
2019-06-23 17:00:00 32.5 15 Sur 39 Sudoeste 0 -- -- 21
2019-06-23 16:00:00 31.3 20 Sur 40 Sur 0 -- -- 22
2019-06-23 15:00:00 30.5 25 Sur 44 Sur 0 -- -- 23
2019-06-23 14:00:00 29.9 19 Sur 39 Sur 0 -- -- 24
2019-06-23 13:00:00 28.2 23 Sur 36 Sur 0 -- -- 27
2019-06-23 12:00:00 27.5 18 Sur 30 Sur 0 -- -- 28
2019-06-23 11:00:00 26.3 21 Sudoeste 35 Sudoeste 0 -- -- 28
2019-06-23 10:00:00 24.3 20 Sur 31 Sudoeste 0 -- -- 33
2019-06-23 09:00:00 18.8 13 Sur 21 Sudeste 0 -- -- 60
2019-06-23 08:00:00 16.5 3 Sudeste 11 Sur 0 -- -- 74
2019-06-23 07:00:00 14.1 4 Sudeste 13 Este 0 -- -- 84
2019-06-23 06:00:00 13.8 3 Sur 12 Sudoeste 0 -- -- 86
2019-06-23 05:00:00 14.9 8 Sudoeste 17 Sudoeste 0 -- -- 83
2019-06-23 04:00:00 15.3 11 Sudoeste 17 Oeste 0 -- -- 82
2019-06-23 03:00:00 15.7 9 Sudoeste 14 Oeste 0 -- -- 81
2019-06-23 02:00:00 16.4 8 Sudoeste 18 Sudoeste 0 -- -- 79
2019-06-23 01:00:00 17.5 9 Sudoeste 21 Sudoeste 0 -- -- 74
2019-06-23 00:00:00 19.2 10 Sudoeste 28 Sur 0 -- -- 65
2019-06-22 23:00:00 21.3 18 Sur 28 Sur 0 -- -- 56
2019-06-22 22:00:00 22.3 14 Sur 32 Sudoeste 0 -- -- 54
2019-06-22 21:00:00 24.9 22 Sudoeste 35 Sur 0 -- -- 44
2019-06-22 20:00:00 27.8 19 Sudoeste 33 Sudoeste 0 -- -- 28
2019-06-22 19:00:00 28.6 10 Oeste 40 Sur 0 -- -- 26
2019-06-22 18:00:00 29.4 16 Sudoeste 33 Sudoeste 0 -- -- 23
2019-06-22 17:00:00 29.1 18 Sudoeste 36 Sudoeste 0 -- -- 24
2019-06-22 16:00:00 28.5 14 Sur 35 Sudoeste 0 -- -- 29
2019-06-22 15:00:00 28.4 17 Sudoeste 37 Oeste 0 -- -- 25
2019-06-22 14:00:00 27.6 17 Sudoeste 38 Sur 0 -- -- 27
2019-06-22 13:00:00 23.8 22 Sur 36 Sur 0 -- -- 45
2019-06-22 12:00:00 24.3 18 Sur 30 Sur 0 -- -- 46
2019-06-22 11:00:00 21.1 17 Sur 26 Sur 0 -- -- 53
2019-06-22 10:00:00 17.6 11 Sur 19 Sur 0 -- -- 61
2019-06-22 09:00:00 15.3 9 Sur 15 Sur 0 -- -- 66
2019-06-22 08:00:00 10.8 9 Sur 13 Sur 0 -- -- 78
2019-06-22 07:00:00 8.4 0 Calma -- -- 0 -- -- 84
2019-06-22 06:00:00 8.4 0 Calma -- -- 0 -- -- 84
2019-06-22 05:00:00 9.3 0 Calma -- -- 0 -- -- 83
2019-06-22 04:00:00 10.3 0 Calma -- -- 0 -- -- 81
2019-06-22 03:00:00 11 0 Calma 16 Norte 0 -- -- 78
2019-06-22 02:00:00 12.8 10 Norte 19 Norte 0 -- -- 73
2019-06-22 01:00:00 13.6 13 Norte 18 Norte 0 -- -- 69
2019-06-22 00:00:00 14.3 12 Norte 21 Norte 0 -- -- 66
2019-06-21 23:00:00 15.4 13 Norte 25 Norte 0 -- -- 63
2019-06-21 22:00:00 17.3 9 Norte 19 Nordeste 0 -- -- 56
2019-06-21 21:00:00 19.9 13 Nordeste 27 Nordeste 0 -- -- 50
2019-06-21 20:00:00 20.9 19 Nordeste 32 Este 0 -- -- 48
2019-06-21 19:00:00 21.3 21 Este 43 Este 0 -- -- 47
2019-06-21 18:00:00 24.6 22 Norte 38 Norte 0 -- -- 39
2019-06-21 17:00:00 24.7 21 Norte 43 Norte 0 -- -- 40
2019-06-21 16:00:00 25.3 18 Nordeste 41 Nordeste 0 -- -- 40
2019-06-21 15:00:00 23.6 24 Norte 38 Norte 0 -- -- 44
2019-06-21 14:00:00 24.1 13 Norte 30 Norte 0 -- -- 41
2019-06-21 13:00:00 22.8 12 Norte 21 Norte 0 -- -- 46
2019-06-21 12:00:00 21.6 8 Norte 19 Norte 0 -- -- 52
2019-06-21 11:00:00 17.9 5 Norte 18 Norte 0 -- -- 64
2019-06-21 10:00:00 16.7 11 Norte 19 Norte 0 -- -- 68
2019-06-21 09:00:00 14.6 12 Norte 21 Norte 0 -- -- 76
2019-06-21 08:00:00 13.6 14 Norte 22 Norte 0 -- -- 82
2019-06-21 07:00:00 13.2 13 Norte 21 Norte 0 -- -- 81
2019-06-21 06:00:00 12.5 11 Norte 22 Norte 0 -- -- 83
2019-06-21 05:00:00 12.8 14 Norte 24 Norte 0 -- -- 83
2019-06-21 04:00:00 13.3 13 Norte 21 Norte 0 -- -- 82
2019-06-21 03:00:00 13.9 12 Nordeste 17 Norte 0 -- -- 82
2019-06-21 02:00:00 14.3 9 Norte 22 Norte 0 -- -- 80
2019-06-21 01:00:00 15.9 11 Norte 18 Norte 0 -- -- 73
2019-06-21 00:00:00 18 4 Sudoeste 13 Sudeste 0 -- -- 67
2019-06-20 23:00:00 18.3 3 Sudoeste 8 Oeste 0 -- -- 64
2019-06-20 22:00:00 19.3 0 Calma 26 Este 0 -- -- 62
2019-06-20 21:00:00 20.7 15 Este 27 Este 0 -- -- 58
2019-06-20 20:00:00 23.9 12 Este 24 Este 0 -- -- 47
2019-06-20 19:00:00 24.1 16 Este 28 Nordeste 0 -- -- 44
2019-06-20 18:00:00 26.5 14 Nordeste 40 Norte 0 -- -- 39
2019-06-20 17:00:00 25.5 28 Norte 41 Norte 0 -- -- 37
2019-06-20 16:00:00 28.7 14 Oeste 28 Sudoeste 0 -- -- 20
2019-06-20 15:00:00 27.7 12 Sudoeste 35 Sudoeste 0 -- -- 24
2019-06-20 14:00:00 27.6 12 Sur 27 Sudeste 0 -- -- 23
2019-06-20 13:00:00 27.3 10 Sur 28 Sur 0 -- -- 28
2019-06-20 12:00:00 25.6 10 Sur 27 Sudeste 0 -- -- 30
2019-06-20 11:00:00 24.5 10 Sur 17 Sur 0 -- -- 35
2019-06-20 10:00:00 22.4 7 Sudeste 12 Sur 0 -- -- 41
2019-06-20 09:00:00 18.4 4 Sur 12 Sur 0 -- -- 50
2019-06-20 08:00:00 14.6 4 Sudoeste 7 Sur 0 -- -- 61
2019-06-20 07:00:00 11.7 0 Calma 8 Sur 0 -- -- 71
2019-06-20 06:00:00 12.2 3 Sur 8 Oeste 0 -- -- 67
2019-06-20 05:00:00 12.8 0 Calma -- -- 0 -- -- 66
2019-06-20 04:00:00 14.5 0 Calma 8 Noroeste 0 -- -- 60
2019-06-20 03:00:00 16.3 4 Noroeste 12 Norte 0 -- -- 54
2019-06-20 02:00:00 16.9 8 Norte 12 Norte 0 -- -- 52
2019-06-20 01:00:00 20.9 16 Norte 28 Norte 0 -- -- 41
2019-06-20 00:00:00 20.4 5 Norte 15 Norte 0 -- -- 41
2019-06-19 23:00:00 21.7 5 Oeste 24 Oeste 0 -- -- 37
2019-06-19 22:00:00 22.9 11 Oeste 27 Oeste 0 -- -- 33
2019-06-19 21:00:00 25.4 12 Oeste 33 Oeste 0 -- -- 28
2019-06-19 20:00:00 27.2 16 Oeste 31 Oeste 0 -- -- 24
2019-06-19 19:00:00 28.2 14 Sudoeste 32 Sudoeste 0 -- -- 23
2019-06-19 18:00:00 28.8 12 Oeste 28 Oeste 0 -- -- 22
2019-06-19 17:00:00 29.6 14 Oeste 27 Oeste 0 -- -- 22
2019-06-19 16:00:00 28.3 14 Sudoeste 31 Oeste 0 -- -- 24
2019-06-19 15:00:00 28.1 18 Sudoeste -- -- -- -- -- 25
2019-06-19 14:00:00 27.2 10 Oeste 28 Oeste 0 -- -- 28
2019-06-19 13:00:00 25.1 14 Sudoeste 32 Sudoeste 0 -- -- 32
2019-06-19 12:00:00 24.3 9 Sur -- -- -- -- -- 36
2019-06-19 11:00:00 -- -- -- -- -- -- -- -- --
2019-06-19 10:00:00 -- -- -- -- -- -- -- -- --
2019-06-19 09:00:00 -- -- -- -- -- -- -- -- --
2019-06-19 08:00:00 -- -- -- -- -- -- -- -- --
2019-06-19 07:00:00 -- -- -- -- -- -- -- -- --
2019-06-19 06:00:00 -- -- -- -- -- -- -- -- --
2019-06-19 05:00:00 -- -- -- -- -- -- -- -- --
2019-06-19 04:00:00 -- -- -- -- -- -- -- -- --
2019-06-19 03:00:00 -- -- -- -- -- -- -- -- --
2019-06-19 02:00:00 -- -- -- -- -- -- -- -- --
2019-06-19 01:00:00 -- -- -- -- -- -- -- -- --
2019-06-19 00:00:00 -- -- -- -- -- -- -- -- --
2019-06-18 23:00:00 -- -- -- -- -- -- -- -- --
2019-06-18 22:00:00 -- -- -- -- -- -- -- -- --
2019-06-18 21:00:00 -- -- -- -- -- -- -- -- --
2019-06-18 20:00:00 -- -- -- -- -- -- -- -- --
2019-06-18 19:00:00 29.2 20 Sudoeste 41 Sudoeste 0 -- -- 19
2019-06-18 18:00:00 30 15 Oeste 45 Sudoeste 0 -- -- 17
2019-06-18 17:00:00 29.6 25 Sudoeste 44 Sudoeste 0 -- -- 17
2019-06-18 16:00:00 29.3 23 Sudoeste 45 Sudoeste 0 -- -- 18
2019-06-18 15:00:00 29.5 22 Sudoeste 47 Sudoeste 0 -- -- 18
2019-06-18 14:00:00 29 26 Sudoeste 45 Sudoeste 0 -- -- 18
2019-06-18 13:00:00 28.8 21 Sudoeste 38 Sudoeste 0 -- -- 20
2019-06-18 12:00:00 27.6 16 Sudoeste 36 Sudoeste 0 -- -- 21
2019-06-18 11:00:00 25.5 16 Sur 27 Sur 0 -- -- 30
2019-06-18 10:00:00 22.3 15 Sur 25 Sur 0 -- -- 33
2019-06-18 09:00:00 19.5 17 Sur 24 Sudoeste 0 -- -- 41
2019-06-18 08:00:00 16.9 8 Sur 17 Sur 0 -- -- 49
2019-06-18 07:00:00 15.4 9 Sur 14 Sur 0 -- -- 54
2019-06-18 06:00:00 15.9 9 Sudoeste 17 Sudoeste 0 -- -- 49
2019-06-18 05:00:00 16.3 9 Sudoeste 18 Sudoeste 0 -- -- 46
2019-06-18 04:00:00 16.7 13 Sudoeste 19 Sudoeste 0 -- -- 47
2019-06-18 03:00:00 16.8 9 Sudoeste 15 Sudoeste 0 -- -- 50
2019-06-18 02:00:00 16 2 Sudeste 15 Sudoeste 0 -- -- 61
2019-06-18 01:00:00 17 11 Sur 22 Sur 0 -- -- 58
2019-06-18 00:00:00 17.8 14 Sur 25 Sur 0 -- -- 57
2019-06-17 23:00:00 19 16 Sur 29 Sur 0 -- -- 55
2019-06-17 22:00:00 21.5 22 Sur 36 Sur 0 -- -- 46
2019-06-17 21:00:00 24.9 17 Sur 33 Sudoeste 0 -- -- 35
2019-06-17 20:00:00 28.3 17 Sudoeste 32 Sur 0 -- -- 27
2019-06-17 19:00:00 29.3 17 Sudoeste 29 Oeste 0 -- -- 16
2019-06-17 18:00:00 30 13 Sudoeste 24 Sudoeste 0 -- -- 14
2019-06-17 17:00:00 29.9 16 Sudoeste 36 Sudeste 0 -- -- 14
2019-06-17 16:00:00 29.5 18 Sur 31 Sur 0 -- -- 18
2019-06-17 15:00:00 28.7 14 Sur 30 Sudeste 0 -- -- 19
2019-06-17 14:00:00 28.1 14 Sur 31 Sur 0 -- -- 21
2019-06-17 13:00:00 27.1 10 Sur 23 Sudeste 0 -- -- 23
2019-06-17 12:00:00 25.8 8 Sur 17 Sur 0 -- -- 26
2019-06-17 11:00:00 23.9 6 Sur 13 Sur 0 -- -- 35
2019-06-17 10:00:00 20.1 8 Sur 14 Sur 0 -- -- 46
2019-06-17 09:00:00 16.5 7 Sur 12 Sur 0 -- -- 64
2019-06-17 08:00:00 13.1 3 Sur 10 Sudoeste 0 -- -- 71
2019-06-17 07:00:00 10.8 8 Sudoeste 10 Sudoeste 0 -- -- 84
2019-06-17 06:00:00 10.4 6 Sur 12 Sudoeste 0 -- -- 87
2019-06-17 05:00:00 11.1 6 Sudoeste 16 Sur 0 -- -- 85
2019-06-17 04:00:00 12.5 10 Sur 15 Sur 0 -- -- 80
2019-06-17 03:00:00 13 8 Sudoeste 12 Sudoeste 0 -- -- 76
2019-06-17 02:00:00 13.9 6 Sudoeste 16 Sudoeste 0 -- -- 72
2019-06-17 01:00:00 14.5 6 Sudoeste 9 Sudoeste 0 -- -- 69
2019-06-17 00:00:00 15.5 5 Sudoeste 13 Sur 0 -- -- 65
2019-06-16 23:00:00 16.9 7 Sudoeste 23 Sur 0 -- -- 61
2019-06-16 22:00:00 19.2 18 Sur 30 Sur 0 -- -- 54
2019-06-16 21:00:00 21.1 21 Sur 32 Sur 0 -- -- 47
2019-06-16 20:00:00 23.5 20 Sudoeste 33 Sudoeste 0 -- -- 32
2019-06-16 19:00:00 23.6 21 Sur 39 Sur 0 -- -- 37
2019-06-16 18:00:00 23.6 27 Sur 43 Sur 0 -- -- 37
2019-06-16 17:00:00 24.7 26 Sur 40 Sur 0 -- -- 32
2019-06-16 16:00:00 25.1 21 Sur 46 Sur 0 -- -- 30
2019-06-16 15:00:00 25.9 25 Sur 40 Sur 0 -- -- 27
2019-06-16 14:00:00 24.9 23 Sur 44 Sudeste 0 -- -- 27
2019-06-16 13:00:00 24.2 20 Sur 37 Sur 0 -- -- 28
2019-06-16 12:00:00 22.9 13 Sur 24 Sur 0 -- -- 31
2019-06-16 11:00:00 20.8 12 Sur 22 Sudeste 0 -- -- 36
2019-06-16 10:00:00 18.2 10 Sur 17 Sur 0 -- -- 42
2019-06-16 09:00:00 13.6 6 Sur 10 Sur 0 -- -- 57
2019-06-16 08:00:00 10.5 5 Sur 9 Sur 0 -- -- 66
2019-06-16 07:00:00 7 0 Calma 5 Noroeste 0 -- -- 77
2019-06-16 06:00:00 7.5 0 Calma 12 Noroeste 0 -- -- 75
2019-06-16 05:00:00 8.3 0 Calma 5 Noroeste 0 -- -- 73
2019-06-16 04:00:00 8.8 5 Norte 8 Norte 0 -- -- 71
2019-06-16 03:00:00 10 6 Norte 13 Noroeste 0 -- -- 67
2019-06-16 02:00:00 12.2 11 Norte 17 Norte 0 -- -- 58
2019-06-16 01:00:00 13.5 12 Norte 17 Norte 0 -- -- 54
2019-06-16 00:00:00 16.4 12 Nordeste 23 Nordeste 0 -- -- 44
2019-06-15 23:00:00 17.2 8 Este 23 Este 0 -- -- 41
2019-06-15 22:00:00 17.3 10 Nordeste 19 Norte 0 -- -- 37
2019-06-15 21:00:00 21.7 9 Norte 22 Norte 0 -- -- 28
2019-06-15 20:00:00 23.4 14 Norte 24 Nordeste 0 -- -- 25
2019-06-15 19:00:00 24.8 12 Nordeste 22 Nordeste 0 -- -- 24
2019-06-15 18:00:00 24.1 6 Norte 22 Norte 0 -- -- 24
2019-06-15 17:00:00 24.1 6 Norte 22 Noroeste 0 -- -- 25
2019-06-15 16:00:00 23.3 10 Nordeste 25 Este 0 -- -- 26
2019-06-15 15:00:00 23.2 9 Nordeste 26 Nordeste 0 -- -- 27
2019-06-15 14:00:00 21.8 10 Este 25 Nordeste 0 -- -- 31
2019-06-15 13:00:00 20.4 7 Este 25 Nordeste 0 -- -- 33
2019-06-15 12:00:00 18.7 11 Nordeste 23 Nordeste 0 -- -- 38
2019-06-15 11:00:00 17.9 9 Nordeste 23 Nordeste 0 -- -- 39
2019-06-15 10:00:00 15.9 13 Nordeste 22 Nordeste 0 -- -- 43
2019-06-15 09:00:00 13.5 4 Este 7 Este 0 -- -- 47
2019-06-15 08:00:00 10.1 0 Calma 12 Norte 0 -- -- 53
2019-06-15 07:00:00 7.9 8 Norte 17 Noroeste 0 -- -- 59
2019-06-15 06:00:00 8.3 8 Noroeste 16 Noroeste 0 -- -- 57
2019-06-15 05:00:00 10.1 13 Noroeste 19 Noroeste 0 -- -- 49
2019-06-15 04:00:00 9.9 10 Noroeste 17 Noroeste 0 -- -- 48
2019-06-15 03:00:00 11.6 9 Noroeste 19 Noroeste 0 -- -- 43
2019-06-15 02:00:00 12.2 10 Oeste 21 Oeste 0 -- -- 41
2019-06-15 01:00:00 13.8 10 Noroeste 16 Noroeste 0 -- -- 37
2019-06-15 00:00:00 14.5 6 Oeste 14 Noroeste 0 -- -- 36
2019-06-14 23:00:00 15.8 7 Oeste 19 Oeste 0 -- -- 34
2019-06-14 22:00:00 19.3 11 Oeste 28 Sudoeste 0 -- -- 26
2019-06-14 21:00:00 21.8 18 Sudoeste 32 Sudoeste 0 -- -- 22
2019-06-14 20:00:00 23.4 19 Sudoeste 36 Sudoeste 0 -- -- 19
2019-06-14 19:00:00 24.6 21 Oeste 41 Sudoeste 0 -- -- 19
2019-06-14 18:00:00 24.7 22 Sudoeste 44 Sur 0 -- -- 21
2019-06-14 17:00:00 25.9 19 Oeste 37 Oeste 0 -- -- 19
2019-06-14 16:00:00 25.6 18 Sudoeste 37 Sudoeste 0 -- -- 21
2019-06-14 15:00:00 22.9 11 Sur 20 Sur 0 -- -- 42
2019-06-14 14:00:00 22.9 9 Sudeste 19 Sudeste 0 -- -- 47
2019-06-14 13:00:00 21.7 6 Sudeste 14 Este 0.2 -- -- 53
2019-06-14 12:00:00 18.6 4 Sudeste 14 Sur 0 -- -- 68
2019-06-14 11:00:00 15.7 11 Sur 23 Sur 0 -- -- 78
2019-06-14 10:00:00 13.9 5 Nordeste 10 Este 0 -- -- 91
2019-06-14 09:00:00 12.4 4 Sur 9 Este 0.2 -- -- 93
2019-06-14 08:00:00 12.2 6 Sur 18 Sudoeste 0.2 -- -- 93
2019-06-14 07:00:00 11.1 3 Sur 13 Sur 0 -- -- 92
2019-06-14 06:00:00 10.7 4 Sudoeste 6 Sur 0 -- -- 90
2019-06-14 05:00:00 11.6 3 Sur 13 Sudoeste 0 -- -- 89
2019-06-14 04:00:00 11.8 6 Sudoeste 12 Sudoeste 0 -- -- 89
2019-06-14 03:00:00 12.1 5 Sudoeste 12 Sudoeste 0 -- -- 88
2019-06-14 02:00:00 13 10 Sudoeste 14 Sudoeste 0 -- -- 86
2019-06-14 01:00:00 13.4 8 Sudoeste 14 Sudoeste 0 -- -- 84
2019-06-14 00:00:00 13.4 9 Sudoeste 12 Sudoeste 0 -- -- 81
2019-06-13 23:00:00 14.6 6 Sudoeste 20 Sur 0 -- -- 76
2019-06-13 22:00:00 16 13 Sur 29 Sur 0 -- -- 71
2019-06-13 21:00:00 18.2 15 Sur 34 Sur 0 -- -- 61
2019-06-13 20:00:00 20.1 19 Sur 34 Sur 0 -- -- 52
2019-06-13 19:00:00 21.4 18 Sur 32 Sur 0 -- -- 42
2019-06-13 18:00:00 22.1 15 Sur 28 Sur 0 -- -- 39
2019-06-13 17:00:00 21.5 19 Sur 33 Sur 0 -- -- 37
2019-06-13 16:00:00 22.9 19 Sur 35 Sudeste 0 -- -- 37
2019-06-13 15:00:00 23.2 17 Sur 49 Sudoeste 0 -- -- 39
2019-06-13 14:00:00 20.8 16 Sur 35 Sudoeste 0 -- -- 46
2019-06-13 13:00:00 18.4 23 Sudoeste 38 Oeste 0 -- -- 52
2019-06-13 12:00:00 17.5 24 Sudoeste 35 Sudoeste 0 -- -- 58
2019-06-13 11:00:00 16.3 21 Sudoeste 39 Sudoeste 0 -- -- 61
2019-06-13 10:00:00 14.4 12 Sur 24 Sudeste 0 -- -- 75
2019-06-13 09:00:00 13.3 14 Sur 26 Sur 0 -- -- 78
2019-06-13 08:00:00 12 9 Sur 22 Sur 0 -- -- 81
2019-06-13 07:00:00 11.1 10 Sur 21 Sur 0 -- -- 81
2019-06-13 06:00:00 10.7 12 Sur 22 Sur 0 -- -- 76
2019-06-13 05:00:00 10.8 8 Sudoeste 17 Sur 0 -- -- 73
2019-06-13 04:00:00 10.2 8 Sur 13 Sur 0 -- -- 72
2019-06-13 03:00:00 9.7 10 Sur 25 Sur 0 -- -- 73
2019-06-13 02:00:00 8.8 17 Sur 25 Sur 0 -- -- 76
2019-06-13 01:00:00 9.4 13 Sur 33 Sur 0 -- -- 73
2019-06-13 00:00:00 10.7 23 Sur 36 Sur 0 -- -- 67
2019-06-12 23:00:00 12 20 Sur 37 Sur 0 -- -- 61
2019-06-12 22:00:00 13.8 23 Sur 39 Sur 0 -- -- 54
2019-06-12 21:00:00 16.4 23 Sur 40 Sur 0 -- -- 49
2019-06-12 20:00:00 19.5 19 Sur 33 Sudoeste 0 -- -- 38
2019-06-12 19:00:00 21.3 18 Sudoeste 31 Sudoeste 0 -- -- 24
2019-06-12 18:00:00 21.6 16 Sudoeste 33 Sudoeste 0 -- -- 23
2019-06-12 17:00:00 22.7 13 Sudoeste 35 Sur 0 -- -- 19
2019-06-12 16:00:00 21.9 12 Sudoeste 36 Sudoeste 0 -- -- 18
2019-06-12 15:00:00 20.8 20 Sudoeste 32 Sudoeste 0 -- -- 20
2019-06-12 14:00:00 19.1 18 Sur 33 Sur 0 -- -- 26
2019-06-12 13:00:00 17.9 15 Sur 28 Sudeste 0 -- -- 29
2019-06-12 12:00:00 16.5 13 Sur 24 Sur 0 -- -- 33
2019-06-12 11:00:00 14.4 14 Sur 21 Sur 0 -- -- 41
2019-06-12 10:00:00 10.8 10 Sur 18 Sur 0 -- -- 60
2019-06-12 09:00:00 7.1 10 Sur 17 Sur 0 -- -- 72
2019-06-12 08:00:00 3.3 8 Sur 14 Sur 0 -- -- 83
2019-06-12 07:00:00 1.1 0 Calma -- -- 0 -- -- 90
2019-06-12 06:00:00 0.6 0 Calma -- -- 0 -- -- 91
2019-06-12 05:00:00 1.6 0 Calma 10 Noroeste 0 -- -- 90
2019-06-12 04:00:00 2.8 7 Noroeste 12 Noroeste 0 -- -- 86
2019-06-12 03:00:00 3 0 Calma 9 Sur 0 -- -- 85
2019-06-12 02:00:00 4.5 0 Calma 8 Norte 0 -- -- 81
2019-06-12 01:00:00 5.4 7 Norte 11 Oeste 0 -- -- 77
2019-06-12 00:00:00 6.8 8 Norte 16 Norte 0 -- -- 70
2019-06-11 23:00:00 6.8 10 Noroeste 14 Norte 0 -- -- 71
2019-06-11 22:00:00 7.9 10 Norte 13 Norte 0 -- -- 66
2019-06-11 21:00:00 11.8 8 Norte 21 Norte 0 -- -- 53
2019-06-11 20:00:00 12.6 12 Norte 31 Norte 0 -- -- 50
2019-06-11 19:00:00 12.4 11 Norte 23 Nordeste 0 -- -- 56
2019-06-11 18:00:00 11 18 Norte 50 Norte 0 -- -- 61
2019-06-11 17:00:00 13.7 17 Norte 27 Nordeste 0 -- -- 49
2019-06-11 16:00:00 9.8 12 Norte 24 Norte 0 -- -- 63
2019-06-11 15:00:00 9.2 15 Norte 32 Norte 0 -- -- 67
2019-06-11 14:00:00 8.7 18 Norte 37 Norte 0 -- -- 71
2019-06-11 13:00:00 9.6 22 Norte 40 Norte 0 -- -- 66
2019-06-11 12:00:00 10.7 23 Norte 35 Norte 0 -- -- 62
2019-06-11 11:00:00 9.8 22 Norte 35 Norte 0 -- -- 67
2019-06-11 10:00:00 9.6 19 Norte 31 Norte 0 -- -- 67
2019-06-11 09:00:00 8.8 19 Norte 31 Norte 0 -- -- 68
2019-06-11 08:00:00 8.2 18 Norte 31 Norte 0 -- -- 67
2019-06-11 07:00:00 8.5 13 Norte 25 Norte 0 -- -- 64
2019-06-11 06:00:00 8.8 14 Norte 23 Norte 0 -- -- 65
2019-06-11 05:00:00 9.3 13 Norte 19 Noroeste 0 -- -- 61
2019-06-11 04:00:00 9.3 10 Norte 13 Norte 0 -- -- 66
2019-06-11 03:00:00 8.9 4 Nordeste 12 Noroeste 0 -- -- 69
2019-06-11 02:00:00 9.1 9 Norte 22 Norte 0 -- -- 67
2019-06-11 01:00:00 9.4 15 Norte 26 Norte 0 -- -- 66
2019-06-11 00:00:00 10.6 15 Norte 26 Norte 0 -- -- 64
2019-06-10 23:00:00 11.9 16 Norte 32 Norte 0 -- -- 59
2019-06-10 22:00:00 13.7 19 Norte 36 Norte 0 -- -- 53
2019-06-10 21:00:00 15.9 21 Norte 35 Norte 0 -- -- 49
2019-06-10 20:00:00 19.2 22 Norte 31 Norte 0 -- -- 41
2019-06-10 19:00:00 22.6 14 Nordeste 27 Nordeste 0 -- -- 30
2019-06-10 18:00:00 23 12 Nordeste 23 Nordeste 0 -- -- 29
2019-06-10 17:00:00 22.8 9 Nordeste 30 Nordeste 0 -- -- 30
2019-06-10 16:00:00 23.3 13 Nordeste 31 Nordeste 0 -- -- 30
2019-06-10 15:00:00 22 9 Nordeste 28 Nordeste 0 -- -- 34
2019-06-10 14:00:00 21.8 13 Nordeste 28 Este 0 -- -- 34
2019-06-10 13:00:00 21.3 16 Nordeste 27 Nordeste 0 -- -- 37
2019-06-10 12:00:00 19.2 13 Nordeste 23 Este 0 -- -- 47
2019-06-10 11:00:00 16.7 7 Nordeste 19 Nordeste 0 -- -- 58
2019-06-10 10:00:00 14.9 9 Nordeste 16 Nordeste 0 -- -- 65
2019-06-10 09:00:00 12.1 8 Este 15 Norte 0 -- -- 78
2019-06-10 08:00:00 10.5 8 Norte 18 Norte 0 -- -- 86
2019-06-10 07:00:00 9.9 14 Norte 22 Norte 0 -- -- 89
2019-06-10 06:00:00 9.9 13 Norte 24 Nordeste 0 -- -- 88
2019-06-10 05:00:00 9.7 17 Norte 28 Norte 0 -- -- 88
2019-06-10 04:00:00 9.7 19 Norte 35 Norte 0 -- -- 87
2019-06-10 03:00:00 10.4 18 Norte 31 Norte 0 -- -- 84
2019-06-10 02:00:00 11.1 16 Norte 26 Norte 0 -- -- 82
2019-06-10 01:00:00 13.2 10 Norte 23 Norte 0 -- -- 72
2019-06-10 00:00:00 15.6 16 Norte 27 Norte 0 -- -- 62
2019-06-09 23:00:00 18.2 8 Noroeste 12 Norte 0 -- -- 30
2019-06-09 22:00:00 20.7 10 Norte 24 Noroeste 0 -- -- 26
2019-06-09 21:00:00 23.4 16 Noroeste 43 Noroeste 0 -- -- 20
2019-06-09 20:00:00 24.8 17 Noroeste 37 Noroeste 0 -- -- 21
2019-06-09 19:00:00 26.4 21 Noroeste 35 Noroeste 0 -- -- 21
2019-06-09 18:00:00 27.8 6 Norte 17 Nordeste 0 -- -- 19
2019-06-09 17:00:00 25.3 8 Este 20 Sudeste 0 -- -- 25
2019-06-09 16:00:00 27.4 8 Sudeste 19 Nordeste 0 -- -- 24
2019-06-09 15:00:00 27.1 6 Este 22 Sudeste 0 -- -- 27
2019-06-09 14:00:00 25.9 3 Oeste 17 Sur 0 -- -- 29
2019-06-09 13:00:00 24.9 7 Sudeste 18 Sudeste 0 -- -- 32
2019-06-09 12:00:00 23 7 Sur 18 Sur 0 -- -- 37
2019-06-09 11:00:00 19.9 13 Sur 22 Sur 0 -- -- 44
2019-06-09 10:00:00 18.1 10 Sur 20 Sudoeste 0 -- -- 47
2019-06-09 09:00:00 15.3 7 Sur 13 Sur 0 -- -- 55
2019-06-09 08:00:00 11.1 8 Sudoeste 16 Sur 0 -- -- 74
2019-06-09 07:00:00 11 13 Sur 18 Sur 0 -- -- 73
2019-06-09 06:00:00 11.7 7 Sur 18 Sur 0 -- -- 70
2019-06-09 05:00:00 11.6 8 Sudoeste 13 Sur 0 -- -- 71
2019-06-09 04:00:00 12 10 Sur 16 Sur 0 -- -- 68
2019-06-09 03:00:00 11.5 8 Sudoeste 14 Sur 0 -- -- 71
2019-06-09 02:00:00 12.4 9 Sur 16 Sur 0 -- -- 65
2019-06-09 01:00:00 12.5 6 Sur 15 Sur 0 -- -- 62
2019-06-09 00:00:00 13.6 9 Sur 28 Sur 0 -- -- 54
2019-06-08 23:00:00 14.7 20 Sur 32 Sur 0 -- -- 51
2019-06-08 22:00:00 15.4 20 Sur 31 Sur 0 -- -- 50
2019-06-08 21:00:00 16.5 18 Sur 38 Sur 0 -- -- 48
2019-06-08 20:00:00 18.6 25 Sur 37 Sur 0 -- -- 45
2019-06-08 19:00:00 20.2 23 Sur 39 Sur 0 -- -- 43
2019-06-08 18:00:00 21.8 23 Sur 38 Sur 0 -- -- 39
2019-06-08 17:00:00 21.8 27 Sur 44 Sur 0 -- -- 41
2019-06-08 16:00:00 23 24 Sur 43 Sur 0 -- -- 38
2019-06-08 15:00:00 23.1 23 Sur 40 Sur 0 -- -- 38
2019-06-08 14:00:00 21.8 20 Sur 39 Sur 0 -- -- 41
2019-06-08 13:00:00 20.1 17 Sur 33 Sur 0 -- -- 43
2019-06-08 12:00:00 18.9 19 Sur 36 Sudeste 0 -- -- 46
2019-06-08 11:00:00 17.4 16 Sur 27 Sur 0 -- -- 52
2019-06-08 10:00:00 15 14 Sur 24 Sur 0 -- -- 44
2019-06-08 09:00:00 12.6 2 Sudeste 5 Este 0 -- -- 48
2019-06-08 08:00:00 8.4 0 Calma 5 Nordeste 0 -- -- 59
2019-06-08 07:00:00 4.9 0 Calma 5 Norte 0 -- -- 70
2019-06-08 06:00:00 6 4 Norte 8 Noroeste 0 -- -- 66
2019-06-08 05:00:00 6 5 Noroeste 9 Norte 0 -- -- 66
2019-06-08 04:00:00 7.1 0 Calma 9 Noroeste 0 -- -- 60
2019-06-08 03:00:00 9.2 5 Noroeste 9 Noroeste 0 -- -- 54
2019-06-08 02:00:00 8.5 0 Calma 12 Noroeste 0 -- -- 57
2019-06-08 01:00:00 10.5 6 Noroeste 12 Noroeste 0 -- -- 50
2019-06-08 00:00:00 9.9 0 Calma 13 Noroeste 0 -- -- 53
2019-06-07 23:00:00 11 6 Norte 9 Norte 0 -- -- 49
2019-06-07 22:00:00 13.2 7 Norte 24 Norte 0 -- -- 42
2019-06-07 21:00:00 17.3 14 Norte 23 Norte 0 -- -- 31
2019-06-07 20:00:00 19.3 16 Norte 27 Nordeste 0 -- -- 28
2019-06-07 19:00:00 20.5 17 Norte 30 Nordeste 0 -- -- 26
2019-06-07 18:00:00 21.7 14 Nordeste 32 Nordeste 0 -- -- 22
2019-06-07 17:00:00 22.4 18 Nordeste 40 Norte 0 -- -- 21
2019-06-07 16:00:00 21.8 14 Norte 28 Norte 0 -- -- 17
2019-06-07 15:00:00 20.6 15 Norte 31 Norte 0 -- -- 20
2019-06-07 14:00:00 20.2 15 Norte 34 Norte 0 -- -- 20
2019-06-07 13:00:00 19.2 15 Noroeste 35 Norte 0 -- -- 25
2019-06-07 12:00:00 17.6 19 Noroeste 36 Noroeste 0 -- -- 28
2019-06-07 11:00:00 16.1 15 Oeste 46 Noroeste 0 -- -- 46
2019-06-07 10:00:00 15.5 20 Noroeste 41 Noroeste 0 -- -- 51
2019-06-07 09:00:00 14.7 19 Noroeste 32 Noroeste 0 -- -- 58
2019-06-07 08:00:00 12.3 8 Sudoeste 19 Sur 0 -- -- 67
2019-06-07 07:00:00 11.2 12 Sudoeste 22 Sudoeste 0 -- -- 74
2019-06-07 06:00:00 10 13 Sudoeste 23 Sur 0 -- -- 84
2019-06-07 05:00:00 10.6 15 Sur 26 Sur 0 -- -- 86
2019-06-07 04:00:00 10.9 17 Sur 31 Sur 0 -- -- 85
2019-06-07 03:00:00 11.7 21 Sur 32 Sur 0 -- -- 82
2019-06-07 02:00:00 11.6 13 Sur 29 Sudoeste 0 -- -- 80
2019-06-07 01:00:00 12.5 13 Sudoeste 22 Sudoeste 0 -- -- 67
2019-06-07 00:00:00 12.6 13 Sudoeste 26 Sur 0 -- -- 58
2019-06-06 23:00:00 13.6 15 Sur 27 Sur 0 -- -- 59
2019-06-06 22:00:00 15.1 20 Sur 42 Sur 0 -- -- 59
2019-06-06 21:00:00 17.9 23 Sur 46 Sur 0 -- -- 49
2019-06-06 20:00:00 20 24 Sur 48 Sur 0 -- -- 39
2019-06-06 19:00:00 21.2 27 Sur 59 Sudoeste 0 -- -- 37
2019-06-06 18:00:00 23.3 30 Sudoeste 54 Sudoeste 0 -- -- 22
2019-06-06 17:00:00 23 27 Sudoeste 52 Sudoeste 0 -- -- 22
2019-06-06 16:00:00 22.4 25 Sudoeste 44 Sudoeste 0 -- -- 23
2019-06-06 15:00:00 20.9 26 Sudoeste 45 Sudoeste 0 -- -- 25
2019-06-06 14:00:00 20 24 Sudoeste 43 Sudoeste 0 -- -- 26
2019-06-06 13:00:00 19.3 24 Sudoeste 46 Sudoeste 0 -- -- 25
2019-06-06 12:00:00 19.1 26 Sudoeste 43 Sudoeste 0 -- -- 24
2019-06-06 11:00:00 17.3 21 Sudoeste 33 Sudoeste 0 -- -- 30
2019-06-06 10:00:00 15 10 Sur 18 Sudeste 0 -- -- 50
2019-06-06 09:00:00 11.3 8 Sur 14 Sur 0 -- -- 55
2019-06-06 08:00:00 8 5 Sudoeste 10 Sudeste 0 -- -- 70
2019-06-06 07:00:00 4 6 Sur 12 Sur 0 -- -- 82
2019-06-06 06:00:00 5 10 Sur 13 Sur 0 -- -- 77
2019-06-06 05:00:00 4.6 0 Calma 6 Sur 0 -- -- 85
2019-06-06 04:00:00 5.1 0 Calma -- -- 0 -- -- 83
2019-06-06 03:00:00 6.2 0 Calma 7 Oeste 0 -- -- 81
2019-06-06 02:00:00 6.4 0 Calma -- -- 0 -- -- 81
2019-06-06 01:00:00 8 0 Calma 9 Este 0 -- -- 78
2019-06-06 00:00:00 9.4 0 Calma 12 Noroeste 0 -- -- 72
2019-06-05 23:00:00 10.4 8 Noroeste 15 Norte 0 -- -- 67
2019-06-05 22:00:00 12 8 Norte 24 Norte 0 -- -- 59
2019-06-05 21:00:00 15.7 16 Norte 26 Norte 0 -- -- 38
2019-06-05 20:00:00 16.8 16 Norte 31 Norte 0 -- -- 33
2019-06-05 19:00:00 17.5 21 Norte 37 Norte 0 -- -- 33
2019-06-05 18:00:00 17.6 20 Norte 41 Noroeste 0 -- -- 34
2019-06-05 17:00:00 17.9 31 Norte 47 Norte 0 -- -- 30
2019-06-05 16:00:00 17 28 Norte 51 Norte 0 -- -- 31
2019-06-05 15:00:00 17.7 28 Norte 51 Noroeste 0 -- -- 36
2019-06-05 14:00:00 15.8 30 Norte 48 Norte 0 -- -- 41
2019-06-05 13:00:00 13.6 35 Norte 68 Noroeste 0 -- -- 52
2019-06-05 12:00:00 17.2 22 Oeste 49 Oeste 0 -- -- 29
2019-06-05 11:00:00 15.6 24 Noroeste 43 Noroeste 0 -- -- 39
2019-06-05 10:00:00 16.6 19 Oeste 37 Oeste 0 -- -- 42
2019-06-05 09:00:00 14.1 4 Noroeste 39 Noroeste 0 -- -- 61
2019-06-05 08:00:00 14.7 10 Oeste 32 Noroeste 0 -- -- 61
2019-06-05 07:00:00 11.9 0 Calma 8 Noroeste 0 -- -- 75
2019-06-05 06:00:00 11.6 0 Calma 12 Noroeste 0 -- -- 71
2019-06-05 05:00:00 13 6 Sur 11 Sudoeste 0 -- -- 64
2019-06-05 04:00:00 14.3 8 Sudoeste 15 Sur 0 -- -- 56
2019-06-05 03:00:00 15.2 6 Sudoeste 11 Sudoeste 0 -- -- 52
2019-06-05 02:00:00 15.7 8 Sudoeste 14 Oeste 0 -- -- 60
2019-06-05 01:00:00 16.3 8 Sur 10 Sur 0 -- -- 62
2019-06-05 00:00:00 17.3 6 Sudoeste 19 Sudoeste 0 -- -- 59
2019-06-04 23:00:00 19.8 15 Sudoeste 28 Sur 0 -- -- 50
2019-06-04 22:00:00 21.5 12 Sur 28 Sudoeste 0 -- -- 35
2019-06-04 21:00:00 25.2 16 Sudoeste 33 Sudoeste 0 -- -- 25
2019-06-04 20:00:00 26.2 18 Oeste 42 Sudoeste 0 -- -- 22
2019-06-04 19:00:00 27.5 26 Sudoeste 41 Sudoeste 0 -- -- 20
2019-06-04 18:00:00 28.6 25 Sudoeste 44 Sudoeste 0 -- -- 16
2019-06-04 17:00:00 29.5 21 Sudoeste 43 Oeste 0 -- -- 15
2019-06-04 16:00:00 28.9 28 Sudoeste 47 Sudoeste 0 -- -- 17
2019-06-04 15:00:00 28.8 25 Sudoeste 45 Sudoeste 0 -- -- 16
2019-06-04 14:00:00 28.4 24 Sudoeste 40 Sudoeste 0 -- -- 19
2019-06-04 13:00:00 28.7 15 Oeste 38 Sudoeste 0 -- -- 22
2019-06-04 12:00:00 27 26 Sudoeste 39 Sudoeste 0 -- -- 21
2019-06-04 11:00:00 24.8 16 Sur 31 Sur 0 -- -- 32
2019-06-04 10:00:00 21.6 13 Sur 19 Sur 0 -- -- 39
2019-06-04 09:00:00 17.9 9 Sur 16 Sur 0 -- -- 50
2019-06-04 08:00:00 13.2 5 Sudeste 9 Sudeste 0 -- -- 63
2019-06-04 07:00:00 11.8 6 Sur 13 Sudoeste 0 -- -- 65
2019-06-04 06:00:00 11.2 8 Sudoeste 13 Sur 0 -- -- 67
2019-06-04 05:00:00 12.2 6 Sudoeste 19 Sur 0 -- -- 64
2019-06-04 04:00:00 14.5 12 Sudoeste 18 Sudoeste 0 -- -- 54
2019-06-04 03:00:00 13.7 9 Sur 22 Sur 0 -- -- 59
2019-06-04 02:00:00 14.1 12 Sudoeste 18 Sudoeste 0 -- -- 58
2019-06-04 01:00:00 15.1 9 Sudoeste 19 Sudoeste 0 -- -- 57
2019-06-04 00:00:00 16 13 Sudoeste 25 Sur 0 -- -- 56
2019-06-03 23:00:00 17.2 11 Sudoeste 19 Sudoeste 0 -- -- 54
2019-06-03 22:00:00 19.5 13 Sudoeste 26 Sur 0 -- -- 46
2019-06-03 21:00:00 22.7 14 Sudoeste 32 Sur 0 -- -- 40
2019-06-03 20:00:00 26 21 Sur 31 Sur 0 -- -- 33
2019-06-03 19:00:00 30.3 13 Oeste 33 Oeste 0 -- -- 18
2019-06-03 18:00:00 29.7 13 Oeste 26 Oeste 0 -- -- 18
2019-06-03 17:00:00 30.6 13 Oeste 31 Noroeste 0 -- -- 18
2019-06-03 16:00:00 30.3 15 Oeste 32 Sudoeste 0 -- -- 19
2019-06-03 15:00:00 29.6 8 Oeste 28 Noroeste 0 -- -- 20
2019-06-03 14:00:00 30 8 Oeste 24 Sudoeste 0 -- -- 21
2019-06-03 13:00:00 28.4 9 Sur 18 Sudeste 0 -- -- 26
2019-06-03 12:00:00 27.8 8 Sur 18 Sur 0 -- -- 28
2019-06-03 11:00:00 25 7 Sudeste 17 Sur -- -- -- 31
2019-06-03 10:00:00 21.4 12 Sur 23 Sur 0 -- -- 39
2019-06-03 09:00:00 17.8 12 Sur 21 Sur 0 -- -- 46
2019-06-03 08:00:00 13.5 9 Sur 20 Sudoeste 0 -- -- 57
2019-06-03 07:00:00 11.7 8 Sur 15 Sudoeste 0 -- -- 62
2019-06-03 06:00:00 10.6 7 Sur 12 Sur 0 -- -- 67
2019-06-03 05:00:00 11.5 5 Sur 12 Sudoeste 0 -- -- 64
2019-06-03 04:00:00 13 8 Sudoeste 18 Sudoeste 0 -- -- 56
2019-06-03 03:00:00 13 6 Sur 14 Sur 0 -- -- 57
2019-06-03 02:00:00 14.5 7 Sudoeste 15 Sur 0 -- -- 53
2019-06-03 01:00:00 15.2 9 Sudoeste 17 Sudoeste 0 -- -- 51
2019-06-03 00:00:00 16.7 10 Sur 18 Sur 0 -- -- 48
2019-06-02 23:00:00 18.5 10 Sur 28 Sur 0 -- -- 44
2019-06-02 22:00:00 20.6 18 Sur 30 Sur 0 -- -- 38
2019-06-02 21:00:00 23 18 Sur 29 Sur 0 -- -- 33
2019-06-02 20:00:00 24.9 21 Sur 32 Sur 0 -- -- 30
2019-06-02 19:00:00 26.6 21 Sur 31 Sur 0 -- -- 28
2019-06-02 18:00:00 30.3 7 Este 14 Nordeste 0 -- -- 20
2019-06-02 17:00:00 30.5 6 Noroeste 20 Nordeste 0 -- -- 21
2019-06-02 16:00:00 31.5 3 Nordeste 17 Nordeste 0 -- -- 21
2019-06-02 15:00:00 29.2 8 Este 19 Este 0 -- -- 23
2019-06-02 14:00:00 29.9 9 Este 18 Este 0 -- -- 21
2019-06-02 13:00:00 28.3 8 Sur 15 Sur 0 -- -- 25
2019-06-02 12:00:00 26.7 4 Sur 14 Sur 0 -- -- 29
2019-06-02 11:00:00 23.4 6 Sudeste 13 Sur 0 -- -- 36
2019-06-02 10:00:00 19.7 8 Sur 14 Sur 0 -- -- 42
2019-06-02 09:00:00 15.8 9 Sur 13 Sur 0 -- -- 50
2019-06-02 08:00:00 12 5 Sur 9 Sur 0 -- -- 61
2019-06-02 07:00:00 9.8 0 Calma 12 Sudoeste 0 -- -- 64
2019-06-02 06:00:00 9.9 8 Sudoeste 14 Sudoeste 0 -- -- 64
2019-06-02 05:00:00 10.2 4 Sudoeste 13 Sudoeste 0 -- -- 63
2019-06-02 04:00:00 11.5 9 Sudoeste 18 Sur 0 -- -- 60
2019-06-02 03:00:00 11.4 8 Sudoeste 13 Sudoeste 0 -- -- 64
2019-06-02 02:00:00 12.3 8 Sudoeste 13 Sudoeste 0 -- -- 62
2019-06-02 01:00:00 13.3 6 Sudoeste 14 Sudoeste 0 -- -- 60
2019-06-02 00:00:00 14.9 10 Sur 18 Sur 0 -- -- 56
2019-06-01 23:00:00 16.9 12 Sur 22 Sur 0 -- -- 50
2019-06-01 22:00:00 19.1 15 Sur 28 Sur 0 -- -- 45
2019-06-01 21:00:00 22.3 15 Sur 33 Sudoeste 0 -- -- 40
2019-06-01 20:00:00 24.9 22 Sur 33 Sur 0 -- -- 34
2019-06-01 19:00:00 29.6 6 Nordeste 14 Nordeste 0 -- -- 17
2019-06-01 18:00:00 29.7 5 Nordeste 19 Este 0 -- -- 18
2019-06-01 17:00:00 29.7 4 Noroeste 23 Sudeste 0 -- -- 16
2019-06-01 16:00:00 28.7 9 Sudeste 21 Sudeste 0 -- -- 19
2019-06-01 15:00:00 28.2 8 Este 17 Este 0 -- -- 21
2019-06-01 14:00:00 27.1 8 Sudeste 17 Sur 0 -- -- 25
2019-06-01 13:00:00 25.7 6 Este 15 Sudeste 0 -- -- 28
2019-06-01 12:00:00 24 6 Sudeste 15 Sudeste 0 -- -- 36
2019-06-01 11:00:00 20.9 8 Sur 14 Sudoeste 0 -- -- 43
2019-06-01 10:00:00 17.5 9 Sur 15 Sur 0 -- -- 51
2019-06-01 09:00:00 13.8 10 Sur 16 Sur 0 -- -- 64
2019-06-01 08:00:00 10.9 5 Sudoeste 10 Sudoeste 0 -- -- 75
2019-06-01 07:00:00 9 7 Sudoeste 11 Sudoeste 0 -- -- 79
2019-06-01 06:00:00 9.1 5 Sudoeste 12 Sudoeste 0 -- -- 78
2019-06-01 05:00:00 9.9 8 Sudoeste 18 Sur 0 -- -- 76
2019-06-01 04:00:00 9.3 7 Sudoeste 12 Sudoeste 0 -- -- 82
2019-06-01 03:00:00 10.7 8 Sudoeste 14 Sudoeste 0 -- -- 78
2019-06-01 02:00:00 11.5 9 Sudoeste 15 Sudoeste 0 -- -- 76
2019-06-01 01:00:00 12.8 8 Sudoeste 14 Sudoeste 0 -- -- 71
2019-06-01 00:00:00 14.3 9 Sudoeste 12 Sudoeste 0 -- -- 65
2019-05-31 23:00:00 15.5 3 Sudoeste 17 Sur 0 -- -- 62
2019-05-31 22:00:00 18.2 12 Sudoeste 22 Sur 0 -- -- 53
2019-05-31 21:00:00 21.4 15 Sur 32 Sur 0 -- -- 43
2019-05-31 20:00:00 26.4 8 Este 18 Nordeste 0 -- -- 20
2019-05-31 19:00:00 28.5 4 Este 21 Norte 0 -- -- 13
2019-05-31 18:00:00 28.4 11 Nordeste 23 Norte 0 -- -- 14
2019-05-31 17:00:00 28.2 10 Norte 24 Norte 0 -- -- 15
2019-05-31 16:00:00 27.9 5 Nordeste 15 Este 0 -- -- 17
2019-05-31 15:00:00 27 8 Este 17 Este 0 -- -- 17
2019-05-31 14:00:00 26.4 8 Nordeste 17 Este 0 -- -- 19
2019-05-31 13:00:00 25.1 5 Sudeste 14 Sur 0 -- -- 25
2019-05-31 12:00:00 22.9 8 Sudeste 17 Sudeste 0 -- -- 30
2019-05-31 11:00:00 20.7 7 Sur 12 Sur 0 -- -- 38
2019-05-31 10:00:00 17 7 Sur 14 Sur 0 -- -- 51
2019-05-31 09:00:00 13 8 Sur 13 Sur 0 -- -- 61
2019-05-31 08:00:00 10.3 5 Sur 8 Sudeste 0 -- -- 65
2019-05-31 07:00:00 5.8 0 Calma -- -- 0 -- -- 81
2019-05-31 06:00:00 6.4 0 Calma -- -- 0 -- -- 82
2019-05-31 05:00:00 7.4 0 Calma -- -- 0 -- -- 77
2019-05-31 04:00:00 7.8 2 Sudoeste 8 Sudoeste 0 -- -- 75
2019-05-31 03:00:00 8.2 0 Calma -- -- 0 -- -- 71
2019-05-31 02:00:00 8.9 0 Calma -- -- 0 -- -- 69
2019-05-31 01:00:00 10.8 0 Calma 11 Noroeste 0 -- -- 63
2019-05-31 00:00:00 11.9 0 Calma 10 Noroeste 0 -- -- 58
2019-05-30 23:00:00 13.6 5 Noroeste 13 Norte 0 -- -- 51
2019-05-30 22:00:00 16.1 10 Norte 14 Norte 0 -- -- 45
2019-05-30 21:00:00 21.1 9 Nordeste 20 Nordeste 0 -- -- 32
2019-05-30 20:00:00 23.5 14 Nordeste 26 Nordeste 0 -- -- 29
2019-05-30 19:00:00 24.8 16 Nordeste 30 Norte 0 -- -- 27
2019-05-30 18:00:00 25.6 14 Nordeste 30 Nordeste 0 -- -- 23
2019-05-30 17:00:00 25.8 13 Nordeste 28 Norte 0 -- -- 27
2019-05-30 16:00:00 25.4 16 Nordeste 27 Norte 0 -- -- 26
2019-05-30 15:00:00 24.2 12 Norte 24 Norte 0 -- -- 30
2019-05-30 14:00:00 23.4 13 Nordeste 24 Norte 0 -- -- 30
2019-05-30 13:00:00 21.4 12 Nordeste 22 Nordeste 0 -- -- 31
2019-05-30 12:00:00 19 9 Norte 22 Este 0 -- -- 40
2019-05-30 11:00:00 16.9 12 Norte 22 Norte 0 -- -- 46
2019-05-30 10:00:00 15 0 Calma 9 Nordeste 0 -- -- 52
2019-05-30 09:00:00 11 0 Calma 8 Sur 0 -- -- 66
2019-05-30 08:00:00 7.4 0 Calma -- -- 0 -- -- 81
2019-05-30 07:00:00 3.7 0 Calma -- -- 0 -- -- 89
2019-05-30 06:00:00 4.4 0 Calma -- -- 0 -- -- 88
2019-05-30 05:00:00 5.9 0 Calma 10 Noroeste 0 -- -- 84
2019-05-30 04:00:00 6 0 Calma -- -- 0 -- -- 84
2019-05-30 03:00:00 7.2 2 Nordeste 13 Noroeste 0 -- -- 79
2019-05-30 02:00:00 7.8 0 Calma 9 Norte 0 -- -- 78
2019-05-30 01:00:00 8.4 0 Calma 12 Norte 0 -- -- 75
2019-05-30 00:00:00 9.5 9 Nordeste 15 Norte 0 -- -- 70
2019-05-29 23:00:00 11.5 12 Norte 25 Norte 0 -- -- 62
2019-05-29 22:00:00 12.5 10 Norte 28 Norte 0 -- -- 60
2019-05-29 21:00:00 16.1 21 Norte 33 Nordeste 0 -- -- 49
2019-05-29 20:00:00 18.2 21 Nordeste 37 Nordeste 0 -- -- 42
2019-05-29 19:00:00 19.2 22 Norte 42 Norte 0 -- -- 38
2019-05-29 18:00:00 19.7 22 Norte 41 Norte 0 -- -- 36
2019-05-29 17:00:00 19.7 28 Nordeste 45 Norte 0 -- -- 32
2019-05-29 16:00:00 19.4 24 Norte 42 Norte 0 -- -- 33
2019-05-29 15:00:00 18.4 28 Norte 46 Norte 0 -- -- 36
2019-05-29 14:00:00 17.2 30 Norte 53 Norte 0 -- -- 36
2019-05-29 13:00:00 16 29 Norte 51 Norte 0 -- -- 43
2019-05-29 12:00:00 14.3 28 Norte 46 Norte 0 -- -- 47
2019-05-29 11:00:00 12.5 20 Norte 36 Nordeste 0 -- -- 55
2019-05-29 10:00:00 11.2 22 Nordeste 33 Nordeste 0 -- -- 57
2019-05-29 09:00:00 9.2 17 Norte 28 Nordeste 0 -- -- 63
2019-05-29 08:00:00 6.4 9 Norte 15 Norte 0 -- -- 74
2019-05-29 07:00:00 3.3 0 Calma 8 Nordeste 0 -- -- 85
2019-05-29 06:00:00 2.9 0 Calma 11 Norte 0 -- -- 86
2019-05-29 05:00:00 4.7 6 Nordeste 28 Norte 0 -- -- 78
2019-05-29 04:00:00 5.8 12 Norte 18 Norte 0 -- -- 73
2019-05-29 03:00:00 6.2 12 Norte 23 Norte 0 -- -- 72
2019-05-29 02:00:00 6.8 15 Norte 30 Norte 0 -- -- 73
2019-05-29 01:00:00 7.5 15 Norte 30 Norte 0 -- -- 72
2019-05-29 00:00:00 7.8 15 Norte 30 Norte 0 -- -- 72
2019-05-28 23:00:00 8.6 14 Norte 32 Norte 0 -- -- 70
2019-05-28 22:00:00 10.2 19 Nordeste 35 Norte 0 -- -- 62
2019-05-28 21:00:00 12.6 23 Nordeste 36 Nordeste 0 -- -- 56
2019-05-28 20:00:00 15.2 22 Nordeste 42 Nordeste 0 -- -- 48
2019-05-28 19:00:00 16.8 25 Nordeste 46 Norte 0 -- -- 43
2019-05-28 18:00:00 18.5 25 Nordeste 39 Nordeste 0 -- -- 41
2019-05-28 17:00:00 19.6 19 Nordeste 40 Norte 0 -- -- 37
2019-05-28 16:00:00 19.5 20 Norte 36 Nordeste 0 -- -- 34
2019-05-28 15:00:00 18.7 20 Nordeste 35 Nordeste 0 -- -- 38
2019-05-28 14:00:00 17.6 21 Nordeste 37 Norte 0 -- -- 44
2019-05-28 13:00:00 15.9 21 Norte 33 Nordeste 0 -- -- 46
2019-05-28 12:00:00 14.2 16 Nordeste 32 Nordeste 0 -- -- 55
2019-05-28 11:00:00 13 12 Nordeste 22 Norte 0 -- -- 58
2019-05-28 10:00:00 10.8 10 Nordeste 21 Norte 0 -- -- 68
2019-05-28 09:00:00 8.6 14 Norte 26 Norte 0 -- -- 76
2019-05-28 08:00:00 8 11 Norte 17 Norte 0 -- -- 78
2019-05-28 07:00:00 7.8 10 Norte 22 Norte 0 -- -- 78
2019-05-28 06:00:00 8.4 13 Norte 19 Norte 0 -- -- 78
2019-05-28 05:00:00 8.6 10 Norte 21 Norte 0 -- -- 82
2019-05-28 04:00:00 9.3 13 Norte 21 Norte 0 -- -- 80
2019-05-28 03:00:00 10 7 Norte 24 Norte 0 -- -- 79
2019-05-28 02:00:00 10.8 14 Norte 24 Nordeste 0 -- -- 75
2019-05-28 01:00:00 11.6 13 Nordeste 22 Nordeste 0 -- -- 80
2019-05-28 00:00:00 11.4 9 Nordeste 15 Norte 0 -- -- 81
2019-05-27 23:00:00 12.1 11 Norte 26 Nordeste 0 -- -- 77
2019-05-27 22:00:00 13.7 14 Norte 28 Norte 0 -- -- 66
2019-05-27 21:00:00 16 21 Norte 34 Norte 0 -- -- 59
2019-05-27 20:00:00 18.5 22 Norte 41 Norte 0 -- -- 50
2019-05-27 19:00:00 21.2 24 Norte 40 Norte 0 -- -- 44
2019-05-27 18:00:00 22.8 18 Norte 36 Norte 0 -- -- 39
2019-05-27 17:00:00 23.4 23 Nordeste 42 Nordeste 0 -- -- 36
2019-05-27 16:00:00 23.1 21 Nordeste 39 Nordeste 0 -- -- 37
2019-05-27 15:00:00 22.9 19 Norte 33 Norte 0 -- -- 33
2019-05-27 14:00:00 21.7 24 Norte 41 Nordeste 0 -- -- 36
2019-05-27 13:00:00 21 17 Norte 33 Nordeste 0 -- -- 40
2019-05-27 12:00:00 19.1 18 Norte 30 Norte 0 -- -- 49
2019-05-27 11:00:00 17.4 15 Nordeste 25 Norte 0 -- -- 53
2019-05-27 10:00:00 14 3 Nordeste 9 Norte 0 -- -- 64
2019-05-27 09:00:00 11.2 2 Sudeste 5 Sudeste 0 -- -- 72
2019-05-27 08:00:00 6.2 0 Calma -- -- 0 -- -- 88
2019-05-27 07:00:00 3.5 0 Calma -- -- 0 -- -- 96
2019-05-27 06:00:00 4.1 0 Calma -- -- 0 -- -- 96
2019-05-27 05:00:00 4.3 0 Calma -- -- 0 -- -- 94
2019-05-27 04:00:00 5.5 0 Calma -- -- 0 -- -- 93
2019-05-27 03:00:00 6 0 Calma 12 Noroeste 0 -- -- 93
2019-05-27 02:00:00 7.6 7 Noroeste 11 Noroeste 0 -- -- 88
2019-05-27 01:00:00 7.7 0 Calma 13 Norte 0 -- -- 89
2019-05-27 00:00:00 9.4 9 Norte 19 Norte 0 -- -- 82
2019-05-26 23:00:00 10.4 13 Norte 19 Norte 0 -- -- 77
2019-05-26 22:00:00 11.9 14 Norte 24 Norte 0 -- -- 70
2019-05-26 21:00:00 14.8 13 Norte 24 Nordeste 0 -- -- 58
2019-05-26 20:00:00 16.9 17 Nordeste 30 Norte 0 -- -- 52
2019-05-26 19:00:00 18.4 18 Nordeste 32 Nordeste 0 -- -- 47
2019-05-26 18:00:00 19.3 15 Nordeste 30 Nordeste 0 -- -- 45
2019-05-26 17:00:00 19 17 Nordeste 37 Norte 0 -- -- 44
2019-05-26 16:00:00 18 21 Norte 37 Nordeste 0 -- -- 45
2019-05-26 15:00:00 18.2 20 Norte 40 Norte 0 -- -- 47
2019-05-26 14:00:00 16.1 19 Nordeste 33 Norte 0 -- -- 52
2019-05-26 13:00:00 14.9 19 Nordeste 35 Nordeste 0 -- -- 56
2019-05-26 12:00:00 12.8 18 Nordeste 32 Nordeste 0 -- -- 60
2019-05-26 11:00:00 10.5 19 Nordeste 37 Norte 0 -- -- 67
2019-05-26 10:00:00 9 19 Norte 30 Nordeste 0 -- -- 74
2019-05-26 09:00:00 8.6 14 Nordeste 23 Nordeste 0 -- -- 74
2019-05-26 08:00:00 7.5 8 Norte 23 Norte 0 -- -- 81
2019-05-26 07:00:00 6.9 13 Norte 22 Norte 0 -- -- 84
2019-05-26 06:00:00 6.7 13 Norte 21 Norte 0 -- -- 88
2019-05-26 05:00:00 6.8 10 Norte 18 Norte 0 -- -- 90
2019-05-26 04:00:00 6 10 Norte 14 Norte 0 -- -- 91
2019-05-26 03:00:00 6.4 0 Calma -- -- 0 -- -- 93
2019-05-26 02:00:00 6.8 0 Calma 10 Norte 0 -- -- 92
2019-05-26 01:00:00 7 9 Norte 15 Norte 0 -- -- 92
2019-05-26 00:00:00 8.1 9 Norte 17 Norte 0 -- -- 89
2019-05-25 23:00:00 9.7 15 Norte 28 Norte 0 -- -- 81
2019-05-25 22:00:00 10.7 14 Norte 26 Norte 0 -- -- 76
2019-05-25 21:00:00 13.2 15 Norte 26 Nordeste 0 -- -- 66
2019-05-25 20:00:00 16.2 17 Nordeste 26 Nordeste 0 -- -- 56
2019-05-25 19:00:00 17.4 15 Nordeste 32 Nordeste 0 -- -- 51
2019-05-25 18:00:00 16.7 14 Nordeste 27 Norte 0 -- -- 52
2019-05-25 17:00:00 17.4 18 Nordeste 33 Norte 0 -- -- 52
2019-05-25 16:00:00 17 22 Nordeste 35 Nordeste 0 -- -- 53
2019-05-25 15:00:00 16.4 21 Nordeste 38 Nordeste 0 -- -- 56
2019-05-25 14:00:00 14.5 20 Norte 36 Nordeste 0 -- -- 64
2019-05-25 13:00:00 13.5 19 Nordeste 36 Norte 0 -- -- 66
2019-05-25 12:00:00 11 17 Norte 33 Norte 0 -- -- 74
2019-05-25 11:00:00 10.1 22 Norte 38 Norte 0 -- -- 77
2019-05-25 10:00:00 10.2 23 Norte 37 Norte 0 -- -- 76
2019-05-25 09:00:00 9.1 20 Norte 34 Norte 0 -- -- 80
2019-05-25 08:00:00 8.7 18 Norte 31 Norte 0 -- -- 80
2019-05-25 07:00:00 8.4 7 Nordeste 18 Norte 0 -- -- 84
2019-05-25 06:00:00 8.3 13 Norte 26 Norte 0 -- -- 83
2019-05-25 05:00:00 8.6 18 Norte 40 Nordeste 0 -- -- 82
2019-05-25 04:00:00 8.9 21 Norte 40 Norte 0 -- -- 83
2019-05-25 03:00:00 9.2 18 Norte 36 Norte 0 -- -- 83
2019-05-25 02:00:00 9.3 19 Nordeste 35 Norte 0 -- -- 84
2019-05-25 01:00:00 9.4 16 Norte 31 Norte 0 -- -- 83
2019-05-25 00:00:00 9.6 14 Norte 28 Norte 0 -- -- 84